Terminal Aerodrome Forecast
Issued by NWS Jackson, MS

Home | Current Version | Previous Version | Text Only | Print | Product List | Glossary On
Versions: 1 2 3 4 5 6 7 8 9 10 11 12 13 14
576
FTUS44 KMEG 292019 AAA
TAFTUP
TAF AMD
KTUP 292019Z 2920/3018 11007KT P6SM -SHRA VCTS BKN050CB BKN120
      TEMPO 2920/2922 VRB15G25KT 2SM TSRA BR BKN020CB
     FM292200 09010KT P6SM VCTS BKN050CB
     FM300500 15008KT P6SM VCTS BKN050CB
     FM300800 18008KT P6SM VCTS BKN025CB
     FM301600 20012KT P6SM BKN050 OVC120=

USA.gov is the U.S. government's official web portal to all federal, state and local government web resources and services.